Time;durP1;ratioP1;P1;durP2;ratioP2;P2;SDS_P1;SDS_P2;PMS_P1;PMS_P2;Temp;Humidity;BMP_temperature;BMP_pressure;BME280_temperature;BME280_humidity;BME280_pressure;Samples;Min_cycle;Max_cycle;Signal;HPM_P1;HPM_P2
2023/03/11 00:00:17;;;;;;;2.95;1.30;;;-0.70;99.90;;;;;;5082196;28;20052;-73
2023/03/11 00:02:47;;;;;;;2.50;1.13;;;-0.80;99.90;;;;;;5097777;28;20381;-73
2023/03/11 00:05:23;;;;;;;3.92;0.90;;;-0.50;99.90;;;;;;5097830;28;20040;-74
2023/03/11 00:07:49;;;;;;;2.00;1.00;;;-0.70;99.90;;;;;;5078456;28;20148;-73
2023/03/11 00:10:18;;;;;;;1.60;0.82;;;-0.70;99.90;;;;;;5110788;28;20052;-74
2023/03/11 00:12:43;;;;;;;2.08;0.80;;;-0.60;99.90;;;;;;5112461;28;20047;-74
2023/03/11 00:15:10;;;;;;;1.95;1.15;;;-0.60;99.90;;;;;;5076881;28;20048;-73
2023/03/11 00:17:36;;;;;;;2.83;0.88;;;-0.50;99.90;;;;;;5061711;28;20123;-74
2023/03/11 00:20:03;;;;;;;2.55;1.00;;;-0.50;99.90;;;;;;5111629;28;20120;-72
2023/03/11 00:22:29;;;;;;;1.90;0.90;;;-0.50;99.90;;;;;;5095748;28;20052;-73
2023/03/11 00:24:55;;;;;;;1.70;1.00;;;-0.20;99.90;;;;;;5079567;28;20066;-72
2023/03/11 00:27:21;;;;;;;1.40;1.00;;;-0.50;99.90;;;;;;5076882;28;20108;-73
2023/03/11 00:29:46;;;;;;;4.50;1.17;;;0.20;99.90;;;;;;5095578;28;20877;-73
2023/03/11 00:32:12;;;;;;;2.30;1.13;;;-0.50;99.90;;;;;;5076275;28;20045;-73
2023/03/11 00:34:38;;;;;;;1.35;1.00;;;-0.50;99.90;;;;;;5078377;28;20102;-73
2023/03/11 00:37:03;;;;;;;3.67;1.13;;;0.00;99.90;;;;;;5077139;28;20063;-75
2023/03/11 00:39:29;;;;;;;1.85;0.95;;;-0.50;99.90;;;;;;5097435;28;20052;-74
2023/03/11 00:41:55;;;;;;;2.65;1.00;;;-0.50;99.90;;;;;;5081654;28;20099;-74
2023/03/11 00:44:21;;;;;;;4.10;1.27;;;-0.50;99.90;;;;;;5063442;28;20052;-75
2023/03/11 00:46:47;;;;;;;1.75;1.00;;;-0.40;99.90;;;;;;5084016;28;20071;-73
2023/03/11 00:49:12;;;;;;;2.72;1.17;;;-0.40;99.90;;;;;;5066897;28;20051;-73
2023/03/11 00:51:38;;;;;;;2.00;0.90;;;-0.40;99.90;;;;;;5102507;28;20040;-73
2023/03/11 00:54:04;;;;;;;3.42;1.00;;;-0.30;99.90;;;;;;5100920;28;20115;-73
2023/03/11 00:56:30;;;;;;;3.13;1.08;;;-0.30;99.90;;;;;;5085193;28;20121;-73
2023/03/11 00:58:55;;;;;;;1.90;0.80;;;-0.40;99.90;;;;;;5068787;28;20052;-74
2023/03/11 01:01:21;;;;;;;3.80;0.85;;;1.10;99.90;;;;;;5100640;28;20227;-74
2023/03/11 01:03:47;;;;;;;1.67;0.80;;;-0.40;99.90;;;;;;5088125;28;20050;-76
2023/03/11 01:06:13;;;;;;;2.63;1.08;;;-0.40;99.90;;;;;;5085648;28;20090;-76
2023/03/11 01:08:39;;;;;;;2.78;1.08;;;-0.40;99.90;;;;;;5087457;28;20052;-76
2023/03/11 01:11:06;;;;;;;3.03;1.20;;;0.00;99.90;;;;;;5086183;28;20435;-74
2023/03/11 01:13:32;;;;;;;4.85;1.20;;;-0.40;99.90;;;;;;5087982;28;20412;-74
2023/03/11 01:15:58;;;;;;;2.47;1.02;;;-0.40;99.90;;;;;;5087183;28;20315;-73
2023/03/11 01:18:24;;;;;;;4.18;1.42;;;-0.40;99.90;;;;;;5101307;28;20436;-75
2023/03/11 01:20:50;;;;;;;3.97;1.27;;;-0.40;99.90;;;;;;5102619;28;20040;-75
2023/03/11 01:23:18;;;;;;;4.00;1.10;;;-0.50;99.90;;;;;;5100112;28;20075;-75
2023/03/11 01:25:44;;;;;;;2.58;0.90;;;-0.50;99.90;;;;;;5101472;28;20064;-74
2023/03/11 01:28:10;;;;;;;2.78;0.90;;;-0.50;99.90;;;;;;5099018;28;20062;-76
2023/03/11 01:30:38;;;;;;;2.33;1.02;;;-0.60;99.90;;;;;;5083886;28;20222;-75
2023/03/11 01:33:04;;;;;;;2.85;1.15;;;-0.50;99.90;;;;;;5117426;28;20051;-75
2023/03/11 01:35:31;;;;;;;2.88;1.08;;;-0.50;99.90;;;;;;5099186;28;20047;-74
2023/03/11 01:37:58;;;;;;;3.92;1.17;;;-0.50;99.90;;;;;;5100472;28;20040;-72
2023/03/11 01:40:33;;;;;;;4.35;1.15;;;-0.50;99.90;;;;;;5098529;28;20044;-75
2023/03/11 01:43:00;;;;;;;1.77;1.10;;;-0.50;99.90;;;;;;5100805;28;20111;-74
2023/03/11 01:45:37;;;;;;;4.38;1.27;;;0.90;99.90;;;;;;5098681;28;20044;-74
2023/03/11 01:48:03;;;;;;;3.78;1.20;;;-0.50;99.90;;;;;;5099958;28;20059;-74
2023/03/11 01:50:35;;;;;;;2.03;1.05;;;-0.50;99.90;;;;;;5083448;28;20047;-75
2023/03/11 01:53:03;;;;;;;4.07;1.00;;;-0.50;99.90;;;;;;5098662;28;20524;-75
2023/03/11 01:55:30;;;;;;;4.00;1.17;;;-0.50;99.90;;;;;;5100367;28;20056;-76
2023/03/11 01:57:56;;;;;;;4.13;1.00;;;-0.30;99.90;;;;;;5081070;28;20048;-76
2023/03/11 02:00:22;;;;;;;2.60;1.02;;;-0.60;99.90;;;;;;5100281;28;20036;-75
2023/03/11 02:02:53;;;;;;;3.85;2.35;;;-0.60;99.90;;;;;;5099493;28;20442;-76
2023/03/11 02:05:21;;;;;;;2.38;0.90;;;-0.10;99.90;;;;;;5082087;28;20040;-75
2023/03/11 02:07:47;;;;;;;2.92;1.15;;;-0.60;99.90;;;;;;5083275;28;20093;-75
2023/03/11 02:10:14;;;;;;;4.45;1.75;;;-0.60;99.90;;;;;;5098004;28;20046;-75
2023/03/11 02:12:41;;;;;;;4.47;1.17;;;-0.60;99.90;;;;;;5100145;28;20052;-75
2023/03/11 02:15:09;;;;;;;2.53;1.20;;;-0.50;99.90;;;;;;5081286;28;20534;-74
2023/03/11 02:17:37;;;;;;;2.25;0.85;;;-0.70;99.90;;;;;;5099828;28;20052;-75
2023/03/11 02:20:28;;;;;;;3.42;1.10;;;-0.60;99.90;;;;;;5099000;28;20067;-75
2023/03/11 02:22:56;;;;;;;2.33;1.10;;;-0.60;99.90;;;;;;5097980;28;20040;-75
2023/03/11 02:25:52;;;;;;;3.92;1.10;;;-0.70;99.90;;;;;;5083131;28;20056;-75
2023/03/11 02:28:20;;;;;;;2.17;1.10;;;-0.60;99.90;;;;;;5098006;28;20056;-75
2023/03/11 02:30:46;;;;;;;3.80;1.20;;;-0.40;99.90;;;;;;5082673;28;20052;-75
2023/03/11 02:33:14;;;;;;;5.22;1.42;;;-0.70;99.90;;;;;;5082667;28;20051;-76
2023/03/11 02:35:40;;;;;;;1.92;0.80;;;-0.70;99.90;;;;;;5080752;28;20499;-76
2023/03/11 02:38:06;;;;;;;5.45;1.10;;;-0.70;99.90;;;;;;5082519;28;20048;-75
2023/03/11 02:40:47;;;;;;;2.80;1.05;;;-0.60;99.90;;;;;;5080021;28;20116;-75
2023/03/11 02:43:16;;;;;;;2.80;1.40;;;-0.60;99.90;;;;;;5099616;28;20525;-75
2023/03/11 02:45:44;;;;;;;2.83;0.95;;;-0.70;99.90;;;;;;5098074;28;20048;-75
2023/03/11 02:48:11;;;;;;;4.22;1.08;;;-0.70;99.90;;;;;;5098232;28;20051;-75
2023/03/11 02:50:38;;;;;;;5.22;1.85;;;-0.70;99.90;;;;;;5099277;28;20044;-74
2023/03/11 02:53:05;;;;;;;4.80;1.35;;;-0.70;99.90;;;;;;5079897;28;20055;-74
2023/03/11 02:55:31;;;;;;;2.97;0.90;;;-0.70;99.90;;;;;;5082580;28;20048;-74
2023/03/11 02:57:57;;;;;;;2.05;0.80;;;-0.90;99.90;;;;;;5079740;28;20048;-74
2023/03/11 03:00:23;;;;;;;2.15;0.90;;;-1.00;99.90;;;;;;5099036;28;20048;-74
2023/03/11 03:02:52;;;;;;;1.92;0.95;;;-1.00;99.90;;;;;;5097889;28;20443;-73
2023/03/11 03:05:20;;;;;;;3.55;1.15;;;-1.60;99.90;;;;;;5098273;28;20052;-73
2023/03/11 03:07:47;;;;;;;2.60;1.20;;;-1.20;99.90;;;;;;5081594;28;20100;-73
2023/03/11 03:10:13;;;;;;;1.80;1.17;;;-1.30;99.90;;;;;;5078784;28;20054;-74
2023/03/11 03:12:39;;;;;;;2.53;0.95;;;-1.40;99.90;;;;;;5098854;28;20073;-74
2023/03/11 03:15:05;;;;;;;3.65;1.00;;;-1.30;99.90;;;;;;5062964;28;20048;-74
2023/03/11 03:17:31;;;;;;;2.38;0.90;;;-1.80;99.90;;;;;;5065001;28;20069;-74
2023/03/11 03:19:57;;;;;;;1.92;0.93;;;-1.70;99.90;;;;;;5080324;28;20154;-74
2023/03/11 03:22:26;;;;;;;1.40;0.85;;;-1.70;99.90;;;;;;5097619;28;20051;-74
2023/03/11 03:24:52;;;;;;;1.80;0.82;;;-1.80;99.90;;;;;;5064423;28;20139;-73
2023/03/11 03:27:18;;;;;;;3.90;1.20;;;-1.80;99.90;;;;;;5094926;28;20099;-74
2023/03/11 03:29:44;;;;;;;2.60;0.88;;;-1.60;99.90;;;;;;5097467;28;20062;-74
2023/03/11 03:32:09;;;;;;;4.95;1.02;;;-1.70;99.90;;;;;;5077382;28;20052;-74
2023/03/11 03:34:35;;;;;;;1.63;0.80;;;-1.70;99.90;;;;;;5080855;28;20054;-74
2023/03/11 03:37:01;;;;;;;1.27;0.80;;;-0.80;99.90;;;;;;5078660;28;20816;-74
2023/03/11 03:39:26;;;;;;;2.10;0.90;;;-1.60;99.90;;;;;;5079202;28;20043;-74
2023/03/11 03:41:52;;;;;;;1.92;0.98;;;-1.50;99.90;;;;;;5096517;28;20062;-74
2023/03/11 03:44:18;;;;;;;3.47;1.10;;;-1.60;99.90;;;;;;5095319;28;20115;-74
2023/03/11 03:46:43;;;;;;;2.00;0.82;;;-1.70;99.90;;;;;;5063993;28;20044;-73
2023/03/11 03:49:09;;;;;;;2.17;1.10;;;-1.70;99.90;;;;;;5060706;28;20411;-74
2023/03/11 03:51:35;;;;;;;2.20;0.95;;;-1.90;99.90;;;;;;5097499;28;20531;-73
2023/03/11 03:54:01;;;;;;;2.35;1.50;;;-2.00;99.90;;;;;;5094836;28;20114;-74
2023/03/11 03:56:26;;;;;;;2.92;1.20;;;-2.10;99.90;;;;;;5079925;28;20131;-73
2023/03/11 03:58:53;;;;;;;2.50;1.02;;;-1.70;99.90;;;;;;5096323;28;20036;-73
2023/03/11 04:01:19;;;;;;;3.42;1.23;;;-2.40;99.90;;;;;;5095061;28;20044;-74
2023/03/11 04:03:45;;;;;;;3.50;1.20;;;-2.50;99.90;;;;;;5080278;28;20476;-73
2023/03/11 04:06:18;;;;;;;3.65;0.98;;;-2.60;99.90;;;;;;5093864;28;20072;-73
2023/03/11 04:08:44;;;;;;;2.38;0.90;;;-2.60;99.90;;;;;;5096849;28;20475;-73
2023/03/11 04:11:10;;;;;;;3.38;1.05;;;-2.60;99.90;;;;;;5094446;28;20126;-73
2023/03/11 04:13:36;;;;;;;3.92;0.90;;;-2.90;99.90;;;;;;5096170;28;20103;-74
2023/03/11 04:16:04;;;;;;;1.88;0.80;;;-2.70;99.90;;;;;;5095928;28;20051;-73
2023/03/11 04:18:29;;;;;;;2.25;0.88;;;-2.80;99.90;;;;;;5078310;28;20112;-74
2023/03/11 04:20:55;;;;;;;2.15;0.98;;;-2.90;99.90;;;;;;5096826;28;20083;-73
2023/03/11 04:23:21;;;;;;;1.88;1.00;;;-2.10;99.90;;;;;;5077166;28;20623;-73
2023/03/11 04:25:47;;;;;;;1.98;1.02;;;-2.90;99.90;;;;;;5079619;28;20056;-73
2023/03/11 04:28:12;;;;;;;1.40;0.80;;;-3.00;99.90;;;;;;5094199;28;20100;-73
2023/03/11 04:30:38;;;;;;;0.93;0.80;;;-2.40;99.90;;;;;;5095969;28;20048;-73
2023/03/11 04:33:04;;;;;;;2.05;0.85;;;-2.20;99.90;;;;;;5094685;28;20050;-73
2023/03/11 04:35:30;;;;;;;2.67;1.45;;;-3.10;99.90;;;;;;5076966;28;20044;-73
2023/03/11 04:37:56;;;;;;;4.15;1.10;;;-3.10;99.90;;;;;;5095501;28;20086;-73
2023/03/11 04:40:21;;;;;;;3.10;1.08;;;-3.20;99.90;;;;;;5059643;28;20117;-73
2023/03/11 04:42:47;;;;;;;2.17;0.75;;;;;;;;;;5096891;28;20048;-73
2023/03/11 04:45:13;;;;;;;2.88;1.00;;;-3.40;99.90;;;;;;5095282;28;20040;-73
2023/03/11 04:47:39;;;;;;;1.85;0.98;;;-3.10;99.90;;;;;;5080261;28;20111;-73
2023/03/11 04:50:05;;;;;;;1.85;0.90;;;-3.10;99.90;;;;;;5078075;28;20075;-72
2023/03/11 04:52:31;;;;;;;1.33;0.75;;;-2.90;99.90;;;;;;5078117;28;20059;-73
2023/03/11 04:54:56;;;;;;;2.10;1.13;;;-2.00;99.90;;;;;;5096019;28;20047;-72
2023/03/11 04:57:22;;;;;;;2.72;1.00;;;-3.20;99.90;;;;;;5093582;28;20048;-73
2023/03/11 04:59:48;;;;;;;1.73;0.70;;;-1.80;99.90;;;;;;5079713;28;20044;-73
2023/03/11 05:02:13;;;;;;;1.40;0.80;;;-2.50;99.90;;;;;;5093736;28;20459;-73
2023/03/11 05:04:39;;;;;;;1.77;0.90;;;-2.60;99.90;;;;;;5079377;28;20389;-73
2023/03/11 05:07:05;;;;;;;1.92;0.85;;;-3.20;99.90;;;;;;5077359;28;20044;-73
2023/03/11 05:09:30;;;;;;;2.80;1.02;;;-3.20;99.90;;;;;;5078071;28;20109;-73
2023/03/11 05:11:56;;;;;;;2.03;1.05;;;-3.30;99.90;;;;;;5095963;28;20048;-72
2023/03/11 05:14:22;;;;;;;3.20;0.90;;;-3.30;99.90;;;;;;5060084;28;20529;-72
2023/03/11 05:16:47;;;;;;;1.60;0.68;;;-3.30;99.90;;;;;;5079497;28;20497;-72
2023/03/11 05:19:33;;;;;;;3.80;1.65;;;-3.10;99.90;;;;;;5076280;28;20055;-72
2023/03/11 05:22:00;;;;;;;2.28;0.80;;;-3.30;99.90;;;;;;5095943;28;20107;-72
2023/03/11 05:24:26;;;;;;;3.90;1.02;;;-3.30;99.90;;;;;;5094711;28;20069;-72
2023/03/11 05:26:52;;;;;;;4.22;1.00;;;-3.50;99.90;;;;;;5061180;28;20051;-72
2023/03/11 05:29:18;;;;;;;1.83;0.80;;;-3.30;99.90;;;;;;5079396;28;20052;-72
2023/03/11 05:31:44;;;;;;;1.60;0.80;;;-3.30;99.90;;;;;;5093957;28;20043;-72
2023/03/11 05:34:10;;;;;;;6.75;1.48;;;-2.30;99.90;;;;;;5100477;28;20068;-72
2023/03/11 05:36:36;;;;;;;2.85;1.00;;;-3.30;99.90;;;;;;5097669;28;20047;-71
2023/03/11 05:39:02;;;;;;;2.65;1.20;;;-3.30;99.90;;;;;;5099253;28;20039;-72
2023/03/11 05:41:27;;;;;;;1.40;0.70;;;-3.40;99.90;;;;;;5081112;28;20051;-71
2023/03/11 05:43:53;;;;;;;2.90;0.93;;;-2.70;99.90;;;;;;5098315;28;20036;-72
2023/03/11 05:46:19;;;;;;;2.90;0.95;;;-3.50;99.90;;;;;;5082323;28;20054;-71
2023/03/11 05:48:45;;;;;;;2.58;0.88;;;-3.50;99.90;;;;;;5096789;28;20077;-72
2023/03/11 05:51:12;;;;;;;2.75;0.90;;;-3.50;99.90;;;;;;5066346;28;20052;-72
2023/03/11 05:53:40;;;;;;;6.13;1.88;;;-3.40;99.90;;;;;;5096361;28;20040;-72
2023/03/11 05:56:06;;;;;;;2.45;0.98;;;-3.40;99.90;;;;;;5099379;28;20103;-72
2023/03/11 05:58:32;;;;;;;3.60;0.98;;;-3.30;99.90;;;;;;5080775;28;20105;-72
2023/03/11 06:00:59;;;;;;;2.72;0.80;;;-3.40;99.90;;;;;;5081043;28;20411;-72
2023/03/11 06:03:25;;;;;;;4.18;1.25;;;-3.40;99.90;;;;;;5065676;28;20076;-72
2023/03/11 06:05:51;;;;;;;2.65;0.90;;;-3.40;99.90;;;;;;5096347;28;20067;-72
2023/03/11 06:08:18;;;;;;;2.95;1.00;;;-3.50;99.90;;;;;;5098760;28;20099;-72
2023/03/11 06:10:44;;;;;;;3.65;1.10;;;-3.70;99.90;;;;;;5095692;28;20051;-72
2023/03/11 06:13:10;;;;;;;2.83;0.90;;;-3.50;99.90;;;;;;5098567;28;20420;-72
2023/03/11 06:15:37;;;;;;;2.50;1.02;;;-3.40;99.90;;;;;;5079542;28;20159;-72
2023/03/11 06:18:04;;;;;;;3.40;0.90;;;-3.50;99.90;;;;;;5080736;28;20054;-72
2023/03/11 06:20:30;;;;;;;2.03;0.98;;;-3.00;99.90;;;;;;5098365;28;20048;-71
2023/03/11 06:22:56;;;;;;;1.48;0.70;;;-3.50;99.90;;;;;;5097456;28;20075;-72
2023/03/11 06:25:22;;;;;;;2.35;0.90;;;-3.50;99.90;;;;;;5064955;28;20135;-72
2023/03/11 06:27:52;;;;;;;1.45;0.80;;;-1.80;99.90;;;;;;5095532;28;20032;-72
2023/03/11 06:30:19;;;;;;;2.50;1.13;;;-2.90;99.90;;;;;;5098096;28;20036;-72
2023/03/11 06:32:45;;;;;;;2.90;0.90;;;-3.50;99.90;;;;;;5079772;28;20052;-72
2023/03/11 06:35:12;;;;;;;2.63;0.93;;;-3.40;99.90;;;;;;5081001;28;20044;-72
2023/03/11 06:37:38;;;;;;;2.65;0.90;;;-2.90;99.90;;;;;;5097856;28;20103;-73
2023/03/11 06:40:09;;;;;;;3.13;1.25;;;-3.20;99.90;;;;;;5078794;28;20137;-72
2023/03/11 06:42:35;;;;;;;2.15;0.80;;;-3.20;99.90;;;;;;5098511;28;20070;-73
2023/03/11 06:45:00;;;;;;;2.22;0.90;;;-3.10;99.90;;;;;;5061906;28;20040;-73
2023/03/11 06:47:27;;;;;;;3.17;0.90;;;-3.10;99.90;;;;;;5098143;28;20062;-73
2023/03/11 06:49:53;;;;;;;1.80;1.00;;;-2.70;99.90;;;;;;5079453;28;20077;-73
2023/03/11 06:52:19;;;;;;;3.50;1.00;;;-3.00;99.90;;;;;;5097067;28;20059;-73
2023/03/11 06:54:45;;;;;;;3.15;0.85;;;-2.40;99.90;;;;;;5080380;28;20060;-73
2023/03/11 06:57:11;;;;;;;1.85;0.82;;;-2.90;99.90;;;;;;5078314;28;20051;-73
2023/03/11 06:59:36;;;;;;;2.38;0.90;;;-1.40;99.90;;;;;;5080956;28;20336;-73
2023/03/11 07:02:04;;;;;;;2.65;1.13;;;-2.70;99.90;;;;;;5095140;28;20079;-74
2023/03/11 07:04:30;;;;;;;2.17;0.90;;;-2.60;99.90;;;;;;5081029;28;20527;-74
2023/03/11 07:06:56;;;;;;;2.95;1.10;;;-2.50;99.90;;;;;;5078955;28;20040;-74
2023/03/11 07:09:24;;;;;;;1.92;0.90;;;-0.80;99.90;;;;;;5063092;28;20044;-74
2023/03/11 07:11:51;;;;;;;1.30;0.80;;;-2.40;99.90;;;;;;5080739;28;20060;-74
2023/03/11 07:14:18;;;;;;;2.33;1.10;;;-2.40;99.90;;;;;;5095583;28;20040;-74
2023/03/11 07:16:44;;;;;;;3.53;1.17;;;-2.30;99.90;;;;;;5097986;28;20045;-74
2023/03/11 07:19:10;;;;;;;2.42;0.90;;;-2.30;99.90;;;;;;5094714;28;20081;-75
2023/03/11 07:21:37;;;;;;;1.45;0.90;;;-2.20;99.90;;;;;;5097931;28;20052;-75
2023/03/11 07:24:03;;;;;;;2.75;1.02;;;-2.20;99.90;;;;;;5061983;28;20113;-75
2023/03/11 07:26:31;;;;;;;2.00;1.20;;;-2.10;99.90;;;;;;5079587;28;20431;-75
2023/03/11 07:28:57;;;;;;;2.00;1.10;;;-1.10;99.90;;;;;;5096879;28;20061;-75
2023/03/11 07:31:28;;;;;;;3.15;0.90;;;-0.90;99.90;;;;;;5078191;28;20040;-75
2023/03/11 07:33:56;;;;;;;3.70;1.00;;;-2.00;99.90;;;;;;5080902;28;20047;-75
2023/03/11 07:36:24;;;;;;;3.38;1.05;;;-2.00;99.90;;;;;;5077770;28;20044;-75
2023/03/11 07:38:58;;;;;;;4.38;1.45;;;-1.90;99.90;;;;;;5097341;28;20063;-75
2023/03/11 07:41:25;;;;;;;2.33;0.95;;;-1.80;99.90;;;;;;5096283;28;20499;-75
2023/03/11 07:43:54;;;;;;;2.80;1.02;;;-1.80;99.90;;;;;;5096404;28;20048;-75
2023/03/11 07:46:22;;;;;;;1.70;0.82;;;-1.60;99.90;;;;;;5097066;28;20095;-75
2023/03/11 07:48:48;;;;;;;3.15;0.90;;;-1.60;99.90;;;;;;5095082;28;20044;-75
2023/03/11 07:51:23;;;;;;;1.58;0.90;;;-1.50;99.90;;;;;;5097259;28;20036;-75
2023/03/11 07:53:51;;;;;;;4.40;0.90;;;-1.40;99.90;;;;;;5078045;28;20135;-75
2023/03/11 07:56:18;;;;;;;1.60;0.80;;;-1.40;99.90;;;;;;5079786;28;20048;-76
2023/03/11 07:58:44;;;;;;;3.17;0.85;;;-1.20;99.90;;;;;;5096533;28;20074;-75
2023/03/11 08:01:14;;;;;;;2.55;0.90;;;-1.20;99.90;;;;;;5078916;28;20048;-76
2023/03/11 08:03:41;;;;;;;1.83;1.02;;;-1.00;99.90;;;;;;5097256;28;20036;-75
2023/03/11 08:06:16;;;;;;;4.68;1.08;;;-1.00;99.90;;;;;;5077555;28;20411;-75
2023/03/11 08:08:45;;;;;;;1.63;0.82;;;-0.80;99.90;;;;;;5113591;28;20101;-76
2023/03/11 08:11:14;;;;;;;2.95;0.98;;;-0.80;99.90;;;;;;5062607;28;20098;-76
2023/03/11 08:13:42;;;;;;;3.25;1.10;;;-0.60;99.90;;;;;;5096056;28;20051;-76
2023/03/11 08:16:09;;;;;;;2.15;1.17;;;-0.50;99.90;;;;;;5113230;28;20076;-76
2023/03/11 08:18:35;;;;;;;3.08;1.08;;;-0.40;99.90;;;;;;5096263;28;20511;-76
2023/03/11 08:21:06;;;;;;;5.40;1.20;;;-0.30;99.90;;;;;;5097064;28;20046;-76
2023/03/11 08:23:31;;;;;;;4.65;1.20;;;-0.10;99.90;;;;;;5077654;28;20400;-76
2023/03/11 08:25:57;;;;;;;3.88;1.48;;;-0.20;99.90;;;;;;5079737;28;20075;-76
2023/03/11 08:28:23;;;;;;;2.85;1.33;;;-0.10;99.90;;;;;;5095003;28;20036;-77
2023/03/11 08:30:49;;;;;;;3.72;0.90;;;0.20;99.90;;;;;;5095767;28;20048;-77
2023/03/11 08:33:14;;;;;;;5.53;1.10;;;0.00;99.90;;;;;;5062643;28;20112;-77
2023/03/11 08:35:40;;;;;;;3.33;1.02;;;0.10;99.90;;;;;;5061314;28;20091;-77
2023/03/11 08:38:06;;;;;;;1.60;1.00;;;0.20;99.90;;;;;;5079469;28;20614;-77
2023/03/11 08:40:32;;;;;;;2.22;1.25;;;0.30;99.90;;;;;;5060012;28;20051;-77
2023/03/11 08:42:57;;;;;;;3.28;1.10;;;0.40;99.90;;;;;;5062723;28;20040;-76
2023/03/11 08:45:23;;;;;;;3.70;1.10;;;0.50;99.90;;;;;;5076794;28;20048;-77
2023/03/11 08:47:49;;;;;;;4.40;1.70;;;0.60;99.90;;;;;;5062079;28;20050;-77
2023/03/11 08:50:18;;;;;;;2.65;1.10;;;0.70;99.90;;;;;;5062473;28;20043;-78
2023/03/11 08:52:44;;;;;;;2.72;1.40;;;0.70;99.90;;;;;;5077775;28;20079;-77
2023/03/11 08:55:15;;;;;;;1.85;1.05;;;1.20;99.90;;;;;;5096458;28;20067;-77
2023/03/11 08:57:41;;;;;;;4.00;1.08;;;0.90;99.90;;;;;;5094204;28;20056;-77
2023/03/11 09:00:09;;;;;;;2.85;1.10;;;0.90;99.90;;;;;;5079720;28;20499;-78
2023/03/11 09:02:34;;;;;;;4.93;1.30;;;1.00;99.90;;;;;;5077477;28;20044;-77
2023/03/11 09:05:00;;;;;;;2.72;1.20;;;1.10;99.90;;;;;;5062385;28;20060;-77
2023/03/11 09:07:26;;;;;;;3.15;1.15;;;1.20;99.90;;;;;;5099335;28;20671;-77
2023/03/11 09:09:53;;;;;;;5.45;1.70;;;1.40;99.90;;;;;;5111040;27;20786;-77
2023/03/11 09:12:19;;;;;;;2.90;1.35;;;1.60;99.90;;;;;;5117089;28;20048;-77
2023/03/11 09:14:45;;;;;;;2.70;1.20;;;1.70;99.90;;;;;;5111544;27;20468;-78
2023/03/11 09:17:11;;;;;;;3.78;1.35;;;1.80;99.90;;;;;;5099337;28;20117;-78
2023/03/11 09:19:37;;;;;;;2.92;1.00;;;2.00;99.90;;;;;;5114821;28;20124;-77
2023/03/11 09:22:04;;;;;;;2.00;1.35;;;2.00;99.90;;;;;;5099488;28;20836;-78
2023/03/11 09:24:33;;;;;;;2.63;1.20;;;2.10;99.90;;;;;;5098577;28;20080;-77
2023/03/11 09:27:00;;;;;;;2.40;1.20;;;2.30;99.90;;;;;;5114434;28;20060;-77
2023/03/11 09:29:26;;;;;;;1.90;1.33;;;2.30;99.90;;;;;;5082898;28;20036;-77
2023/03/11 09:31:51;;;;;;;3.55;1.20;;;2.40;99.90;;;;;;5062857;28;20078;-75
2023/03/11 09:34:17;;;;;;;1.92;1.33;;;2.50;99.90;;;;;;5099821;28;20052;-75
2023/03/11 09:36:43;;;;;;;3.85;1.10;;;2.60;99.90;;;;;;5080952;28;20043;-75
2023/03/11 09:39:09;;;;;;;5.13;1.33;;;2.80;99.90;;;;;;5098083;28;20055;-76
2023/03/11 09:41:54;;;;;;;2.83;0.95;;;2.90;99.90;;;;;;5098571;28;20073;-76
2023/03/11 09:44:44;;;;;;;3.70;1.15;;;2.90;99.90;;;;;;5079435;28;20058;-77
2023/03/11 09:47:13;;;;;;;3.67;1.00;;;3.20;99.90;;;;;;5098160;28;20052;-77
2023/03/11 09:49:41;;;;;;;2.55;0.95;;;2.90;99.90;;;;;;5080850;28;20071;-77
2023/03/11 09:52:18;;;;;;;2.38;0.82;;;3.00;99.90;;;;;;5100183;28;20051;-76
2023/03/11 09:54:50;;;;;;;2.67;1.00;;;3.10;99.90;;;;;;5100610;28;20036;-75
2023/03/11 09:57:24;;;;;;;2.15;1.05;;;3.20;99.90;;;;;;5099139;28;20502;-77
2023/03/11 09:59:50;;;;;;;8.77;1.90;;;3.40;99.90;;;;;;5102934;28;20454;-76
2023/03/11 10:02:22;;;;;;;1.70;1.10;;;3.50;99.90;;;;;;5098318;28;20133;-75
2023/03/11 10:04:56;;;;;;;2.65;0.80;;;3.50;99.90;;;;;;5098886;28;20074;-76
2023/03/11 10:07:37;;;;;;;2.92;1.00;;;3.50;99.90;;;;;;5081169;28;20511;-75
2023/03/11 10:10:05;;;;;;;2.72;1.08;;;3.50;99.90;;;;;;5094837;28;20059;-77
2023/03/11 10:12:58;;;;;;;3.67;1.00;;;3.50;99.90;;;;;;5099215;28;20418;-76
2023/03/11 10:15:47;;;;;;;2.63;1.50;;;3.50;99.90;;;;;;5096070;28;20575;-76
2023/03/11 10:18:29;;;;;;;3.20;1.33;;;3.60;99.90;;;;;;5095245;28;20052;-76
2023/03/11 10:21:19;;;;;;;2.08;0.93;;;3.90;99.90;;;;;;5099276;28;20060;-76
2023/03/11 10:24:03;;;;;;;4.28;1.05;;;4.20;99.90;;;;;;5096125;28;20051;-75
2023/03/11 10:26:56;;;;;;;3.05;1.10;;;4.30;99.90;;;;;;5097746;28;20074;-76
2023/03/11 10:29:27;;;;;;;1.40;0.80;;;4.30;99.90;;;;;;5098647;28;20077;-75
2023/03/11 10:32:16;;;;;;;3.45;0.88;;;4.40;99.90;;;;;;5078997;28;20062;-74
2023/03/11 10:34:47;;;;;;;2.15;1.10;;;4.50;99.90;;;;;;5098686;28;20044;-76
2023/03/11 10:37:18;;;;;;;1.88;0.90;;;4.60;99.90;;;;;;5097946;28;20092;-74
2023/03/11 10:39:47;;;;;;;2.90;0.73;;;4.60;99.90;;;;;;5096360;28;20091;-75
2023/03/11 10:42:21;;;;;;;1.80;0.90;;;4.70;99.90;;;;;;5081602;28;20063;-74
2023/03/11 10:44:46;;;;;;;3.30;1.00;;;4.80;99.90;;;;;;5058671;28;20871;-74
2023/03/11 10:47:24;;;;;;;3.60;1.00;;;4.90;99.90;;;;;;5078492;28;20063;-74
2023/03/11 10:49:51;;;;;;;6.45;2.17;;;4.90;99.90;;;;;;5093731;28;20255;-73
2023/03/11 10:52:18;;;;;;;2.88;1.10;;;4.90;99.90;;;;;;5077463;28;20424;-74
2023/03/11 10:54:57;;;;;;;2.05;1.00;;;5.00;99.90;;;;;;5077819;28;20059;-72
2023/03/11 10:57:24;;;;;;;2.97;0.90;;;5.70;99.90;;;;;;5058370;28;20056;-75
2023/03/11 10:59:58;;;;;;;2.78;1.00;;;5.00;99.90;;;;;;5111844;28;20089;-75
2023/03/11 11:02:28;;;;;;;3.20;1.23;;;5.00;99.90;;;;;;5092646;28;20126;-76
2023/03/11 11:05:15;;;;;;;2.80;1.10;;;5.00;99.90;;;;;;5094215;28;20044;-75
2023/03/11 11:07:42;;;;;;;3.28;1.00;;;5.20;99.90;;;;;;5098081;28;20062;-75
2023/03/11 11:10:11;;;;;;;4.35;1.33;;;5.20;99.90;;;;;;5095202;28;20075;-73
2023/03/11 11:12:57;;;;;;;4.15;1.33;;;5.20;99.90;;;;;;5098160;28;20134;-74
2023/03/11 11:15:34;;;;;;;;;;;5.10;99.90;;;;;;5096312;28;20059;-74
2023/03/11 11:18:06;;;;;;;2.63;1.38;;;4.90;99.90;;;;;;5113694;28;19923;-74
2023/03/11 11:20:33;;;;;;;2.10;1.10;;;4.90;99.90;;;;;;5092774;28;20079;-73
2023/03/11 11:23:01;;;;;;;3.58;1.20;;;5.10;99.90;;;;;;5113007;28;20415;-75
2023/03/11 11:25:36;;;;;;;2.20;1.15;;;5.20;99.90;;;;;;5118009;27;20096;-74
2023/03/11 11:28:18;;;;;;;3.08;1.00;;;5.30;99.90;;;;;;5131916;27;20058;-75
2023/03/11 11:30:52;;;;;;;2.67;1.20;;;5.10;99.90;;;;;;5099466;28;20115;-75
2023/03/11 11:33:24;;;;;;;4.50;1.20;;;5.10;99.90;;;;;;5117314;28;20069;-74
2023/03/11 11:35:55;;;;;;;2.33;0.95;;;5.30;99.90;;;;;;5114823;28;20051;-75
2023/03/11 11:38:23;;;;;;;2.03;0.80;;;5.30;99.90;;;;;;5106316;28;20048;-75
2023/03/11 11:40:50;;;;;;;3.22;0.75;;;5.30;99.90;;;;;;5038017;22;20053;-68
2023/03/11 11:43:18;;;;;;;2.97;1.20;;;5.20;99.90;;;;;;5029643;28;20041;-68
2023/03/11 11:46:02;;;;;;;2.17;1.00;;;5.30;99.90;;;;;;5028845;28;20402;-70
2023/03/11 11:48:55;;;;;;;4.03;1.10;;;5.20;99.90;;;;;;5031423;28;20056;-70
2023/03/11 11:51:30;;;;;;;1.92;0.93;;;5.10;99.90;;;;;;5031585;28;20490;-69
2023/03/11 11:54:34;;;;;;;3.07;0.83;;;4.90;99.90;;;;;;5031399;28;20053;-68
2023/03/11 11:57:07;;;;;;;2.50;1.00;;;4.80;99.90;;;;;;4999772;28;20104;-69
2023/03/11 11:59:34;;;;;;;2.40;0.82;;;4.70;99.90;;;;;;5024515;28;20079;-69
2023/03/11 12:02:29;;;;;;;2.13;1.02;;;4.70;99.90;;;;;;5029269;28;20049;-68
2023/03/11 12:05:44;;;;;;;4.68;0.90;;;4.80;99.90;;;;;;5029806;28;20415;-68
2023/03/11 12:08:27;;;;;;;3.85;0.90;;;4.80;99.90;;;;;;4988441;28;20061;-69
2023/03/11 12:11:05;;;;;;;3.03;1.08;;;5.00;99.90;;;;;;5027324;28;20107;-69
2023/03/11 12:13:54;;;;;;;2.22;0.98;;;5.10;99.90;;;;;;5030750;28;20493;-69
2023/03/11 12:16:55;;;;;;;2.67;0.98;;;5.00;99.90;;;;;;5029574;28;20053;-69
2023/03/11 12:19:24;;;;;;;3.83;0.90;;;4.90;99.90;;;;;;5030070;28;20050;-69
2023/03/11 12:22:18;;;;;;;3.40;1.13;;;4.80;99.90;;;;;;5029041;28;20045;-70
2023/03/11 12:24:46;;;;;;;4.03;0.80;;;4.70;99.90;;;;;;5027198;28;20053;-71
2023/03/11 12:27:20;;;;;;;2.90;1.00;;;4.80;99.90;;;;;;5030043;28;20063;-69
2023/03/11 12:29:51;;;;;;;1.90;0.80;;;4.50;99.90;;;;;;5061304;28;20175;-68
2023/03/11 12:32:47;;;;;;;2.03;1.10;;;4.50;99.90;;;;;;5026073;28;20097;-82
2023/03/11 12:35:27;;;;;;;1.30;0.70;;;4.70;99.90;;;;;;5009070;28;20057;-81
2023/03/11 12:38:42;;;;;;;2.10;0.75;;;4.90;99.90;;;;;;5019067;28;20490;-81
2023/03/11 12:41:14;;;;;;;5.95;1.20;;;5.60;99.90;;;;;;4989072;28;20112;-84
2023/03/11 12:43:39;;;;;;;2.78;0.77;;;6.10;99.90;;;;;;5026465;28;20441;-80
2023/03/11 12:46:06;;;;;;;1.92;0.80;;;6.40;99.90;;;;;;5033263;28;20041;-78
2023/03/11 12:48:35;;;;;;;3.10;0.80;;;6.50;99.90;;;;;;5033458;28;20382;-82
2023/03/11 12:51:01;;;;;;;1.58;0.80;;;6.80;99.90;;;;;;5012192;28;20064;-81
2023/03/11 12:53:46;;;;;;;1.45;0.70;;;7.00;99.90;;;;;;5014278;28;20057;-76
2023/03/11 12:56:25;;;;;;;1.70;0.73;;;7.10;99.90;;;;;;5014836;28;20081;-78
2023/03/11 12:59:35;;;;;;;2.67;0.70;;;7.10;99.90;;;;;;5046931;28;20089;-79
2023/03/11 13:02:23;;;;;;;2.05;0.60;;;6.80;99.90;;;;;;5002147;28;20062;-77